Time;durP1;ratioP1;P1;durP2;ratioP2;P2;SDS_P1;SDS_P2;PMS_P1;PMS_P2;Temp;Humidity;BMP_temperature;BMP_pressure;BME280_temperature;BME280_humidity;BME280_pressure;Samples;Min_cycle;Max_cycle;Signal;HPM_P1;HPM_P2
2022/12/03 00:23:40;;;;;;;;;;;20.70;64.50;;;;;;5083093;28;20523;-66
2022/12/03 00:26:07;;;;;;;;;;;20.70;63.80;;;;;;5095106;28;19912;-67
2022/12/03 00:28:34;;;;;;;;;;;20.70;65.10;;;;;;5091474;28;19930;-67
2022/12/03 00:31:00;;;;;;;;;;;20.70;65.00;;;;;;5097820;28;20460;-67
2022/12/03 00:33:27;;;;;;;;;;;20.70;65.40;;;;;;5090916;28;19958;-67
2022/12/03 00:35:53;;;;;;;;;;;20.80;64.70;;;;;;5099356;28;19962;-67
2022/12/03 00:38:20;;;;;;;;;;;20.70;63.50;;;;;;5094585;28;20445;-67
2022/12/03 00:40:46;;;;;;;;;;;20.80;63.40;;;;;;5087560;28;19908;-67
2022/12/03 00:43:13;;;;;;;;;;;20.80;63.90;;;;;;5093052;28;19919;-67
2022/12/03 00:45:40;;;;;;;;;;;20.80;63.80;;;;;;5094312;28;20316;-67
2022/12/03 00:48:06;;;;;;;;;;;20.80;64.50;;;;;;5096653;28;19916;-67
2022/12/03 00:50:33;;;;;;;;;;;20.80;63.90;;;;;;5091948;28;19951;-67
2022/12/03 00:52:59;;;;;;;;;;;20.90;64.40;;;;;;5094394;28;20011;-68
2022/12/03 00:55:26;;;;;;;;;;;21.00;64.40;;;;;;5094414;28;20006;-68
2022/12/03 00:57:52;;;;;;;;;;;21.00;64.00;;;;;;5093942;28;20285;-68
2022/12/03 01:00:23;;;;;;;;;;;21.10;65.00;;;;;;5075449;28;19915;-67
2022/12/03 01:02:50;;;;;;;;;;;21.00;63.50;;;;;;5094108;28;19920;-68
2022/12/03 01:05:17;;;;;;;;;;;21.00;65.00;;;;;;5094412;28;19915;-68
2022/12/03 01:07:44;;;;;;;;;;;21.00;63.60;;;;;;5067816;28;19916;-68
2022/12/03 01:10:11;;;;;;;;;;;21.00;64.50;;;;;;5101011;28;20041;-68
2022/12/03 01:12:38;;;;;;;;;;;21.00;64.70;;;;;;5114758;28;19914;-68
2022/12/03 01:15:05;;;;;;;;;;;21.00;63.20;;;;;;5114706;28;19980;-68
2022/12/03 01:17:32;;;;;;;;;;;21.00;64.70;;;;;;5109113;28;19916;-68
2022/12/03 01:20:00;;;;;;;;;;;21.00;65.10;;;;;;5095960;28;20332;-67
2022/12/03 01:22:27;;;;;;;;;;;21.10;65.00;;;;;;5093932;28;19923;-67
2022/12/03 01:24:53;;;;;;;;;;;21.20;64.90;;;;;;5089745;28;19943;-67
2022/12/03 01:27:20;;;;;;;;;;;21.30;66.00;;;;;;5091986;28;21437;-67
2022/12/03 01:29:46;;;;;;;;;;;21.40;65.40;;;;;;5092745;28;19918;-66
2022/12/03 01:32:16;;;;;;;;;;;21.50;65.10;;;;;;5093225;28;19934;-66
2022/12/03 01:34:43;;;;;;;;;;;21.60;63.70;;;;;;5093455;28;20454;-66
2022/12/03 01:37:10;;;;;;;;;;;21.70;62.50;;;;;;5093010;28;19938;-66
2022/12/03 01:39:36;;;;;;;;;;;21.70;62.60;;;;;;5090280;28;19957;-65
2022/12/03 01:42:03;;;;;;;;;;;21.70;61.40;;;;;;5093779;28;19908;-65
2022/12/03 01:44:30;;;;;;;;;;;21.70;62.00;;;;;;5093064;28;19934;-66
2022/12/03 01:46:57;;;;;;;;;;;21.70;62.30;;;;;;5075390;28;20362;-66
2022/12/03 01:49:28;;;;;;;;;;;21.70;62.40;;;;;;5092611;28;19916;-66
2022/12/03 01:51:55;;;;;;;;;;;21.70;63.00;;;;;;5092067;28;19951;-66
2022/12/03 01:54:25;;;;;;;;;;;21.60;62.70;;;;;;5068212;28;19927;-67
2022/12/03 01:56:52;;;;;;;;;;;21.50;63.00;;;;;;5088592;28;19907;-66
2022/12/03 01:59:19;;;;;;;;;;;21.50;63.30;;;;;;5098728;28;19958;-67
2022/12/03 02:01:46;;;;;;;;;;;21.50;64.30;;;;;;5110610;28;19918;-66
2022/12/03 02:04:13;;;;;;;;;;;21.50;65.00;;;;;;5101173;28;19916;-66
2022/12/03 02:06:39;;;;;;;;;;;21.60;64.30;;;;;;5085345;28;19939;-66
2022/12/03 02:09:07;;;;;;;;;;;21.70;64.10;;;;;;5089016;28;20022;-67
2022/12/03 02:11:38;;;;;;;;;;;21.70;63.00;;;;;;5102595;28;19969;-66
2022/12/03 02:14:08;;;;;;;;;;;21.80;63.00;;;;;;5110968;28;19957;-66
2022/12/03 02:16:35;;;;;;;;;;;21.80;63.10;;;;;;5092486;28;19923;-65
2022/12/03 02:19:02;;;;;;;;;;;21.90;62.40;;;;;;5089558;28;19935;-65
2022/12/03 02:21:37;;;;;;;;;;;22.00;61.20;;;;;;5110565;28;20409;-65
2022/12/03 02:24:22;;;;;;;;;;;22.00;61.40;;;;;;5065558;28;20004;-65
2022/12/03 02:26:49;;;;;;;;;;;22.10;61.90;;;;;;5105952;28;19955;-65
2022/12/03 02:29:15;;;;;;;;;;;22.10;60.00;;;;;;5105880;28;19985;-65
2022/12/03 02:31:42;;;;;;;;;;;22.10;60.90;;;;;;5110456;28;19916;-66
2022/12/03 02:34:09;;;;;;;;;;;22.10;61.90;;;;;;5110464;28;19907;-65
2022/12/03 02:36:36;;;;;;;;;;;22.20;61.90;;;;;;5104295;28;19912;-66
2022/12/03 02:39:02;;;;;;;;;;;22.20;62.00;;;;;;5100539;28;19919;-66
2022/12/03 02:44:14;;;;;;;;;;;22.20;61.70;;;;;;5084269;28;19923;-64
2022/12/03 02:46:40;;;;;;;;;;;22.20;62.10;;;;;;5091604;28;20014;-65
2022/12/03 02:49:07;;;;;;;;;;;22.20;62.10;;;;;;5101961;28;20289;-64
2022/12/03 02:51:34;;;;;;;;;;;22.20;61.80;;;;;;5108378;28;19912;-64
2022/12/03 02:54:00;;;;;;;;;;;22.20;60.90;;;;;;5091699;28;19911;-64
2022/12/03 02:56:28;;;;;;;;;;;22.20;61.10;;;;;;5110216;28;19915;-64
2022/12/03 02:58:56;;;;;;;;;;;22.20;61.80;;;;;;5099326;28;20026;-65
2022/12/03 03:01:22;;;;;;;;;;;22.20;62.10;;;;;;5109824;28;19973;-64
2022/12/03 03:03:49;;;;;;;;;;;22.20;61.30;;;;;;5109687;28;19912;-64
2022/12/03 03:06:16;;;;;;;;;;;22.20;60.90;;;;;;5110208;28;19911;-64
2022/12/03 03:08:42;;;;;;;;;;;22.20;62.20;;;;;;5082973;28;19985;-65
2022/12/03 03:11:09;;;;;;;;;;;22.20;61.90;;;;;;5104445;28;19912;-65
2022/12/03 03:13:35;;;;;;;;;;;22.20;61.80;;;;;;5109813;28;19927;-65
2022/12/03 03:16:03;;;;;;;;;;;22.30;62.50;;;;;;5091524;28;19912;-64
2022/12/03 03:18:29;;;;;;;;;;;22.20;62.60;;;;;;5108364;28;19981;-69
2022/12/03 03:20:56;;;;;;;;;;;22.20;60.40;;;;;;5104845;28;19946;-69
2022/12/03 03:23:23;;;;;;;;;;;22.20;62.20;;;;;;5072595;28;20349;-69
2022/12/03 03:25:55;;;;;;;;;;;22.20;61.60;;;;;;5098610;28;19915;-65
2022/12/03 03:28:21;;;;;;;;;;;22.10;60.40;;;;;;5088379;28;19992;-66
2022/12/03 03:30:48;;;;;;;;;;;22.20;61.90;;;;;;5099193;28;19915;-68
2022/12/03 03:33:15;;;;;;;;;;;22.20;61.40;;;;;;5078493;28;19939;-67
2022/12/03 03:35:42;;;;;;;;;;;22.10;61.00;;;;;;5080475;28;20357;-67
2022/12/03 03:38:08;;;;;;;;;;;22.20;61.50;;;;;;5072350;28;19920;-67
2022/12/03 03:40:35;;;;;;;;;;;22.20;62.00;;;;;;5089841;28;20030;-68
2022/12/03 03:43:02;;;;;;;;;;;22.20;62.10;;;;;;5082271;28;20014;-69
2022/12/03 03:45:29;;;;;;;;;;;22.20;61.40;;;;;;5071561;28;20281;-66
2022/12/03 03:47:56;;;;;;;;;;;22.20;62.40;;;;;;5092964;28;19924;-68
2022/12/03 03:50:22;;;;;;;;;;;22.10;61.70;;;;;;5082391;28;19920;-67
2022/12/03 03:52:49;;;;;;;;;;;22.10;61.30;;;;;;5084416;28;19912;-69
2022/12/03 03:55:17;;;;;;;;;;;22.10;61.30;;;;;;5094176;28;19919;-68
2022/12/03 03:57:44;;;;;;;;;;;22.10;61.20;;;;;;5086094;28;20002;-68
2022/12/03 04:00:11;;;;;;;;;;;22.10;60.20;;;;;;5093648;28;19912;-67
2022/12/03 04:02:37;;;;;;;;;;;22.10;60.10;;;;;;5097958;28;19996;-66
2022/12/03 04:05:04;;;;;;;;;;;22.10;60.00;;;;;;5104925;28;20430;-68
2022/12/03 04:07:31;;;;;;;;;;;22.10;60.30;;;;;;5078804;28;19934;-68
2022/12/03 04:09:57;;;;;;;;;;;22.00;59.00;;;;;;5087894;28;20280;-67
2022/12/03 04:15:09;;;;;;;;;;;22.00;60.40;;;;;;5112089;28;20031;-66
2022/12/03 04:17:35;;;;;;;;;;;22.00;59.10;;;;;;5096006;28;20003;-67
2022/12/03 04:20:02;;;;;;;;;;;22.00;60.70;;;;;;5096927;28;19912;-67
2022/12/03 04:22:41;;;;;;;;;;;22.00;60.40;;;;;;5109035;28;19912;-66
2022/12/03 04:30:37;;;;;;;;;;;21.90;61.80;;;;;;5088225;28;20277;-66
2022/12/03 04:35:48;;;;;;;;;;;21.90;58.30;;;;;;5094243;28;19930;-67
2022/12/03 04:38:15;;;;;;;;;;;21.80;59.50;;;;;;5098319;28;19926;-67
2022/12/03 04:41:00;;;;;;;;;;;21.80;60.20;;;;;;5092185;28;20342;-67
2022/12/03 04:43:33;;;;;;;;;;;21.80;60.00;;;;;;5096234;28;19980;-67
2022/12/03 04:46:00;;;;;;;;;;;21.80;61.10;;;;;;5069560;28;20008;-67
2022/12/03 04:48:27;;;;;;;;;;;21.80;61.00;;;;;;5092326;28;19924;-67
2022/12/03 04:50:53;;;;;;;;;;;21.80;61.60;;;;;;5086557;28;19908;-68
2022/12/03 04:53:20;;;;;;;;;;;21.80;61.30;;;;;;5095972;28;19920;-67
2022/12/03 04:55:46;;;;;;;;;;;21.90;61.20;;;;;;5108066;28;20308;-68
2022/12/03 04:58:13;;;;;;;;;;;21.80;61.30;;;;;;5108423;28;19912;-69
2022/12/03 05:00:39;;;;;;;;;;;21.80;61.50;;;;;;5111104;28;19919;-67
2022/12/03 05:03:06;;;;;;;;;;;21.80;62.10;;;;;;5100244;28;19908;-67
2022/12/03 05:05:33;;;;;;;;;;;21.80;62.00;;;;;;5109183;28;19912;-67
2022/12/03 05:07:59;;;;;;;;;;;21.80;62.40;;;;;;5103511;28;19924;-69
2022/12/03 05:10:26;;;;;;;;;;;21.80;62.50;;;;;;5106488;28;19920;-67
2022/12/03 05:12:53;;;;;;;;;;;21.70;62.40;;;;;;5097390;28;19912;-67
2022/12/03 05:15:19;;;;;;;;;;;21.70;61.30;;;;;;5114539;28;19932;-67
2022/12/03 05:17:46;;;;;;;;;;;21.80;62.30;;;;;;5114885;28;20008;-68
2022/12/03 05:22:57;;;;;;;;;;;21.80;62.10;;;;;;5098742;28;19916;-68
2022/12/03 05:25:24;;;;;;;;;;;21.70;63.20;;;;;;5082407;28;19920;-68
2022/12/03 05:27:50;;;;;;;;;;;21.80;62.50;;;;;;5104022;28;20366;-68
2022/12/03 05:30:17;;;;;;;;;;;21.80;62.90;;;;;;5104510;28;20002;-68
2022/12/03 05:32:44;;;;;;;;;;;21.70;64.00;;;;;;5093485;28;19912;-68
2022/12/03 05:35:10;;;;;;;;;;;21.70;64.10;;;;;;5096095;28;20392;-68
2022/12/03 05:37:37;;;;;;;;;;;21.70;64.60;;;;;;5076956;28;19915;-68
2022/12/03 05:40:04;;;;;;;;;;;21.70;64.90;;;;;;5111792;28;20621;-68
2022/12/03 05:45:15;;;;;;;;;;;21.70;64.60;;;;;;5102394;28;19920;-68
2022/12/03 05:47:42;;;;;;;;;;;21.70;65.20;;;;;;5109496;28;19926;-68
2022/12/03 05:50:08;;;;;;;;;;;21.70;65.00;;;;;;5111978;28;19919;-67
2022/12/03 05:52:35;;;;;;;;;;;21.70;65.40;;;;;;5102578;28;19920;-67
2022/12/03 05:55:01;;;;;;;;;;;21.70;64.60;;;;;;5095077;28;19923;-67
2022/12/03 05:57:28;;;;;;;;;;;21.70;65.10;;;;;;5111621;28;19998;-68
2022/12/03 09:12:26;;;;;;;;;;;20.30;71.40;;;;;;5088378;28;20069;-67
2022/12/03 09:14:52;;;;;;;;;;;20.30;71.40;;;;;;5089165;28;19920;-67
2022/12/03 09:17:19;;;;;;;;;;;20.30;71.60;;;;;;5094770;28;19939;-66
2022/12/03 09:19:46;;;;;;;;;;;20.30;71.80;;;;;;5095578;28;19912;-68
2022/12/03 09:22:14;;;;;;;;;;;20.20;72.10;;;;;;5086576;28;20581;-67
2022/12/03 09:24:40;;;;;;;;;;;20.20;72.60;;;;;;5088190;28;20466;-69
2022/12/03 09:27:07;;;;;;;;;;;20.20;72.80;;;;;;5089029;28;19919;-69
2022/12/03 09:29:33;;;;;;;;;;;20.20;73.10;;;;;;5090473;28;20007;-69
2022/12/03 09:32:00;;;;;;;;;;;20.20;73.20;;;;;;5091017;28;20365;-69
2022/12/03 09:34:27;;;;;;;;;;;20.20;73.30;;;;;;5075835;28;19955;-68
2022/12/03 09:36:53;;;;;;;;;;;20.20;73.50;;;;;;5090567;28;19912;-68
2022/12/03 09:39:20;;;;;;;;;;;20.10;73.70;;;;;;5090292;28;19924;-68
2022/12/03 09:41:46;;;;;;;;;;;20.10;73.90;;;;;;5085895;28;20032;-67
2022/12/03 09:44:13;;;;;;;;;;;20.10;74.00;;;;;;5084230;28;19916;-67
2022/12/03 09:46:40;;;;;;;;;;;20.10;74.00;;;;;;5092700;28;19983;-68
2022/12/03 09:49:06;;;;;;;;;;;20.10;74.00;;;;;;5088379;28;19919;-69
2022/12/03 09:51:33;;;;;;;;;;;20.10;74.20;;;;;;5074759;28;19999;-68
2022/12/03 09:54:00;;;;;;;;;;;20.00;74.10;;;;;;5069926;28;19923;-68
2022/12/03 09:56:27;;;;;;;;;;;20.00;74.30;;;;;;5072152;28;19908;-68
2022/12/03 09:58:54;;;;;;;;;;;20.00;74.50;;;;;;5089869;28;19916;-68
2022/12/03 10:01:20;;;;;;;;;;;20.10;74.50;;;;;;5072135;28;19916;-68
2022/12/03 10:03:50;;;;;;;;;;;20.00;74.60;;;;;;5070537;28;19961;-68
2022/12/03 10:06:20;;;;;;;;;;;20.10;74.60;;;;;;5072629;28;20052;-67
2022/12/03 10:08:48;;;;;;;;;;;20.10;74.50;;;;;;5072539;28;20224;-68
2022/12/03 10:36:22;;;;;;;;;;;20.00;75.40;;;;;;5074467;28;20603;-66
2022/12/03 10:39:07;;;;;;;;;;;20.00;75.50;;;;;;5069202;28;19934;-69
2022/12/03 10:41:34;;;;;;;;;;;20.00;75.60;;;;;;5071500;28;20570;-66
2022/12/03 10:44:16;;;;;;;;;;;20.00;75.40;;;;;;5089861;28;19919;-66
2022/12/03 10:46:42;;;;;;;;;;;19.90;75.40;;;;;;5087935;28;19912;-66
2022/12/03 10:49:10;;;;;;;;;;;19.90;75.40;;;;;;5088682;28;19924;-67
2022/12/03 10:51:37;;;;;;;;;;;19.90;75.20;;;;;;5081257;28;19912;-66
2022/12/03 10:54:05;;;;;;;;;;;19.90;74.90;;;;;;5112361;28;19908;-66
2022/12/03 10:56:32;;;;;;;;;;;19.90;74.80;;;;;;5094516;28;19953;-66
2022/12/03 10:58:58;;;;;;;;;;;19.90;75.00;;;;;;5076965;28;19977;-67
2022/12/03 11:01:25;;;;;;;;;;;19.90;74.90;;;;;;5091517;28;19918;-66
2022/12/03 11:03:52;;;;;;;;;;;19.90;74.90;;;;;;5086666;28;20636;-66
2022/12/03 11:06:19;;;;;;;;;;;19.90;74.90;;;;;;5094560;28;19908;-66
2022/12/03 11:08:46;;;;;;;;;;;19.80;74.90;;;;;;5090826;28;19922;-66
2022/12/03 11:11:13;;;;;;;;;;;19.90;75.00;;;;;;5070697;28;19913;-66
2022/12/03 11:13:39;;;;;;;;;;;19.90;75.00;;;;;;5095063;28;20325;-66
2022/12/03 11:16:07;;;;;;;;;;;19.80;75.10;;;;;;5085471;28;19912;-66
2022/12/03 11:18:36;;;;;;;;;;;19.80;75.30;;;;;;5094200;28;19912;-69
2022/12/03 11:21:06;;;;;;;;;;;19.80;75.20;;;;;;5085995;28;20419;-66
2022/12/03 11:23:44;;;;;;;;;;;19.80;75.40;;;;;;5101239;28;19911;-66
2022/12/03 11:26:11;;;;;;;;;;;19.80;75.30;;;;;;5097845;28;19908;-66
2022/12/03 11:28:50;;;;;;;;;;;19.80;75.30;;;;;;5105912;28;20460;-66
2022/12/03 11:31:36;;;;;;;;;;;19.80;75.40;;;;;;5096372;28;20007;-66
2022/12/03 11:34:20;;;;;;;;;;;19.80;75.50;;;;;;5089783;28;20013;-66
2022/12/03 15:24:30;;;;;;;;;;;18.40;81.70;;;;;;5079413;28;19935;-68
2022/12/03 15:26:56;;;;;;;;;;;18.40;81.60;;;;;;5103503;28;19911;-68
2022/12/03 15:29:23;;;;;;;;;;;18.40;81.70;;;;;;5102047;28;20447;-68
2022/12/03 15:31:49;;;;;;;;;;;18.40;81.60;;;;;;5099634;28;19934;-68
2022/12/03 15:34:16;;;;;;;;;;;18.40;81.70;;;;;;5099512;28;19913;-67
2022/12/03 15:36:43;;;;;;;;;;;18.30;81.80;;;;;;5094998;28;19912;-68
2022/12/03 15:39:09;;;;;;;;;;;18.30;81.90;;;;;;5101635;28;19912;-67
2022/12/03 15:41:36;;;;;;;;;;;18.30;81.80;;;;;;5103848;28;19912;-68
2022/12/03 15:44:02;;;;;;;;;;;18.30;81.70;;;;;;5107245;28;20340;-68
2022/12/03 15:46:30;;;;;;;;;;;18.30;81.80;;;;;;5092169;28;20007;-68
2022/12/03 15:48:56;;;;;;;;;;;18.30;81.90;;;;;;5103256;28;19919;-68
2022/12/03 15:51:23;;;;;;;;;;;18.30;81.90;;;;;;5102478;28;19908;-68
2022/12/03 15:53:50;;;;;;;;;;;18.30;81.90;;;;;;5101867;28;19941;-68
2022/12/03 15:56:16;;;;;;;;;;;18.30;81.70;;;;;;5101207;28;19920;-68
2022/12/03 15:58:43;;;;;;;;;;;18.30;81.70;;;;;;5094566;28;20462;-67
2022/12/03 16:01:12;;;;;;;;;;;18.30;81.80;;;;;;5088663;28;20012;-68
2022/12/03 16:03:38;;;;;;;;;;;18.30;81.70;;;;;;5092819;28;19912;-68
2022/12/03 16:06:05;;;;;;;;;;;18.30;81.80;;;;;;5088015;28;20374;-68
2022/12/03 16:08:32;;;;;;;;;;;18.30;81.80;;;;;;5110804;28;19916;-68
2022/12/03 16:10:58;;;;;;;;;;;18.20;81.80;;;;;;5090514;28;19912;-68
2022/12/03 16:13:25;;;;;;;;;;;18.20;81.90;;;;;;5098045;28;19913;-67
2022/12/03 16:15:51;;;;;;;;;;;18.20;82.00;;;;;;5095490;28;19995;-68
2022/12/03 16:18:18;;;;;;;;;;;18.20;81.90;;;;;;5097291;28;19912;-68
2022/12/03 16:20:45;;;;;;;;;;;18.20;82.00;;;;;;5095123;28;20010;-68
2022/12/03 16:23:11;;;;;;;;;;;18.20;82.00;;;;;;5098817;28;20340;-68
2022/12/03 16:25:38;;;;;;;;;;;18.20;82.20;;;;;;5098816;28;19926;-68
2022/12/03 16:28:04;;;;;;;;;;;18.10;82.40;;;;;;5086065;28;20031;-68
2022/12/03 16:30:31;;;;;;;;;;;18.20;82.70;;;;;;5105804;28;19965;-69
2022/12/03 16:32:58;;;;;;;;;;;18.10;82.90;;;;;;5076308;28;19998;-67
2022/12/03 16:35:24;;;;;;;;;;;18.10;83.00;;;;;;5097799;28;19916;-67
2022/12/03 16:37:51;;;;;;;;;;;18.20;83.10;;;;;;5097466;28;19912;-67
2022/12/03 16:40:17;;;;;;;;;;;18.10;83.20;;;;;;5102976;28;19923;-67
2022/12/03 16:42:44;;;;;;;;;;;18.10;83.30;;;;;;5097005;28;19920;-67
2022/12/03 16:45:21;;;;;;;;;;;18.10;83.40;;;;;;5103982;28;19939;-67
2022/12/03 16:47:48;;;;;;;;;;;18.10;83.50;;;;;;5074321;28;19923;-67
2022/12/03 16:50:15;;;;;;;;;;;18.10;83.40;;;;;;5096399;28;19920;-67
2022/12/03 16:52:42;;;;;;;;;;;18.00;83.30;;;;;;5095257;28;19966;-67
2022/12/03 16:55:08;;;;;;;;;;;18.00;83.30;;;;;;5092892;28;19904;-68
2022/12/03 16:57:35;;;;;;;;;;;18.00;83.20;;;;;;5094069;28;19908;-68
2022/12/03 17:00:02;;;;;;;;;;;18.00;83.10;;;;;;5091428;28;20384;-67
2022/12/03 17:02:28;;;;;;;;;;;18.00;83.10;;;;;;5094443;28;19973;-67
2022/12/03 17:04:55;;;;;;;;;;;18.00;83.30;;;;;;5076125;28;19908;-68
2022/12/03 17:07:22;;;;;;;;;;;18.00;83.50;;;;;;5092539;28;19913;-68
2022/12/03 17:09:48;;;;;;;;;;;18.00;83.70;;;;;;5073625;28;20386;-68
2022/12/03 17:12:15;;;;;;;;;;;17.90;83.80;;;;;;5072703;28;19939;-68
2022/12/03 17:14:41;;;;;;;;;;;18.00;83.80;;;;;;5092487;28;19919;-68
2022/12/03 17:17:08;;;;;;;;;;;17.90;83.90;;;;;;5091647;28;19965;-67
2022/12/03 17:19:35;;;;;;;;;;;17.90;84.10;;;;;;5092809;28;19912;-68
2022/12/03 17:22:01;;;;;;;;;;;17.80;84.20;;;;;;5085666;28;20333;-65
2022/12/03 17:24:28;;;;;;;;;;;17.80;84.10;;;;;;5093138;28;20397;-65
2022/12/03 17:26:55;;;;;;;;;;;17.80;84.10;;;;;;5091855;28;19924;-66
2022/12/03 17:29:21;;;;;;;;;;;17.80;84.00;;;;;;5092999;28;19970;-68
2022/12/03 17:31:48;;;;;;;;;;;17.70;84.00;;;;;;5090891;28;19999;-68
2022/12/03 17:34:14;;;;;;;;;;;17.70;84.00;;;;;;5090332;28;19943;-69
2022/12/03 17:36:41;;;;;;;;;;;17.70;84.10;;;;;;5088374;28;20421;-68
2022/12/03 17:39:07;;;;;;;;;;;17.70;84.20;;;;;;5093432;28;19930;-68
2022/12/03 17:41:34;;;;;;;;;;;17.70;84.30;;;;;;5090180;28;19939;-66
2022/12/03 17:44:01;;;;;;;;;;;17.70;84.40;;;;;;5092506;28;19912;-66
2022/12/03 17:46:27;;;;;;;;;;;17.70;84.50;;;;;;5090731;28;19959;-67
2022/12/03 17:48:54;;;;;;;;;;;17.70;84.70;;;;;;5090106;28;19977;-68
2022/12/03 17:51:21;;;;;;;;;;;17.70;84.90;;;;;;5091761;28;20041;-68
2022/12/03 17:53:47;;;;;;;;;;;17.70;85.10;;;;;;5074070;28;19915;-68
2022/12/03 17:56:14;;;;;;;;;;;17.60;85.30;;;;;;5091894;28;19912;-68
2022/12/03 17:58:40;;;;;;;;;;;17.60;85.40;;;;;;5092270;28;19927;-68
2022/12/03 18:01:10;;;;;;;;;;;17.60;85.60;;;;;;5092677;28;20357;-68
2022/12/03 18:03:36;;;;;;;;;;;17.60;85.60;;;;;;5091375;28;19912;-68
2022/12/03 18:06:03;;;;;;;;;;;17.50;85.50;;;;;;5091451;28;20004;-66
2022/12/03 18:08:30;;;;;;;;;;;17.50;85.50;;;;;;5087265;28;19916;-66
2022/12/03 18:10:56;;;;;;;;;;;17.50;85.60;;;;;;5089912;28;19919;-66
2022/12/03 18:13:23;;;;;;;;;;;17.50;85.50;;;;;;5099776;22;19915;-71
2022/12/03 18:15:49;;;;;;;;;;;17.50;85.50;;;;;;5049108;28;19928;-71
2022/12/03 18:18:16;;;;;;;;;;;17.50;85.60;;;;;;5032090;28;19971;-72
2022/12/03 18:20:43;;;;;;;;;;;17.40;85.70;;;;;;5050978;28;19917;-71
2022/12/03 18:23:10;;;;;;;;;;;17.40;85.60;;;;;;5032761;28;19924;-71
2022/12/03 18:25:36;;;;;;;;;;;17.40;85.70;;;;;;5034015;28;19940;-72
2022/12/03 18:28:03;;;;;;;;;;;17.30;85.80;;;;;;5033019;28;20375;-71
2022/12/03 18:30:29;;;;;;;;;;;17.40;85.70;;;;;;5046770;28;19921;-72
2022/12/03 18:32:56;;;;;;;;;;;17.40;85.80;;;;;;5038230;28;20271;-71
2022/12/03 18:35:23;;;;;;;;;;;17.40;85.80;;;;;;5031786;28;19964;-70
2022/12/03 18:37:50;;;;;;;;;;;17.40;85.80;;;;;;5046883;28;19917;-71
2022/12/03 18:40:21;;;;;;;;;;;17.40;85.90;;;;;;5049207;28;20342;-71
2022/12/03 18:42:47;;;;;;;;;;;17.30;85.90;;;;;;5017734;28;19953;-71
2022/12/03 18:45:14;;;;;;;;;;;17.30;85.90;;;;;;5029765;28;19913;-71
2022/12/03 18:47:41;;;;;;;;;;;17.30;85.90;;;;;;5049061;28;20375;-70
2022/12/03 18:50:08;;;;;;;;;;;17.30;86.10;;;;;;5029818;28;19968;-70
2022/12/03 18:52:35;;;;;;;;;;;17.30;86.20;;;;;;5030625;28;19917;-71
2022/12/03 18:55:01;;;;;;;;;;;17.30;86.10;;;;;;5029960;28;19984;-70
2022/12/03 18:57:28;;;;;;;;;;;17.30;86.10;;;;;;5048735;28;20334;-70
2022/12/03 18:59:54;;;;;;;;;;;17.40;86.10;;;;;;5047836;28;19972;-70
2022/12/03 19:02:21;;;;;;;;;;;17.40;86.00;;;;;;5049824;28;19916;-69
2022/12/03 19:04:47;;;;;;;;;;;17.40;86.00;;;;;;5049399;28;20354;-70
2022/12/03 19:07:14;;;;;;;;;;;17.50;86.00;;;;;;5046996;28;19971;-70
2022/12/03 19:09:41;;;;;;;;;;;17.40;86.00;;;;;;5047843;28;19920;-70
2022/12/03 19:12:07;;;;;;;;;;;17.50;86.00;;;;;;5047630;28;20043;-71
2022/12/03 19:14:34;;;;;;;;;;;17.40;86.10;;;;;;5046456;28;20176;-71
2022/12/03 19:17:01;;;;;;;;;;;17.50;86.10;;;;;;5044681;28;19917;-71
2022/12/03 19:19:28;;;;;;;;;;;17.50;86.10;;;;;;5046846;28;19991;-71
2022/12/03 19:21:55;;;;;;;;;;;17.60;86.20;;;;;;5047300;28;19917;-71
2022/12/03 19:24:22;;;;;;;;;;;17.70;86.20;;;;;;5047443;28;19916;-71
2022/12/03 19:26:53;;;;;;;;;;;17.70;86.00;;;;;;5045572;28;20043;-70
2022/12/03 19:29:20;;;;;;;;;;;17.90;85.70;;;;;;5046790;28;19925;-71
2022/12/03 19:31:48;;;;;;;;;;;18.00;85.30;;;;;;5045709;28;19917;-71
2022/12/03 19:34:14;;;;;;;;;;;18.10;85.20;;;;;;5046709;28;20367;-70
2022/12/03 19:36:41;;;;;;;;;;;18.20;85.10;;;;;;5048699;28;19916;-70
2022/12/03 19:39:08;;;;;;;;;;;18.30;84.70;;;;;;5046993;28;19959;-70
2022/12/03 19:41:34;;;;;;;;;;;18.30;84.40;;;;;;5047504;28;20272;-71
2022/12/03 19:44:01;;;;;;;;;;;18.40;84.00;;;;;;5028907;28;19913;-70
2022/12/03 19:46:29;;;;;;;;;;;18.40;83.80;;;;;;5044874;28;19920;-71
2022/12/03 19:48:55;;;;;;;;;;;18.50;83.70;;;;;;5040535;28;20033;-70
2022/12/03 19:51:22;;;;;;;;;;;18.50;83.90;;;;;;5046725;28;19916;-70
2022/12/03 19:53:49;;;;;;;;;;;18.60;83.30;;;;;;5047757;28;20330;-70
2022/12/03 19:56:16;;;;;;;;;;;18.60;82.70;;;;;;5046223;28;19915;-70
2022/12/03 19:58:44;;;;;;;;;;;18.60;82.50;;;;;;5023292;28;19917;-68
2022/12/03 20:01:30;;;;;;;;;;;18.60;82.30;;;;;;5041651;28;20294;-70
2022/12/03 20:03:57;;;;;;;;;;;18.60;82.50;;;;;;5043599;28;19917;-70
2022/12/03 20:06:25;;;;;;;;;;;18.70;82.50;;;;;;5043687;28;19920;-70
2022/12/03 20:08:55;;;;;;;;;;;18.70;82.40;;;;;;5046063;28;19925;-70
2022/12/03 20:11:26;;;;;;;;;;;18.70;82.20;;;;;;5029584;28;19970;-70
2022/12/03 20:13:53;;;;;;;;;;;18.80;82.00;;;;;;5046762;28;19928;-71
2022/12/03 20:16:19;;;;;;;;;;;18.90;82.20;;;;;;5046977;28;19917;-70
2022/12/03 20:18:46;;;;;;;;;;;18.90;81.50;;;;;;5047322;28;19916;-70
2022/12/03 20:21:13;;;;;;;;;;;18.90;81.60;;;;;;5047987;28;19909;-69
2022/12/03 20:23:40;;;;;;;;;;;19.00;81.30;;;;;;5048316;28;20410;-69
2022/12/03 20:26:07;;;;;;;;;;;19.10;81.10;;;;;;5048503;28;19966;-69
2022/12/03 20:28:34;;;;;;;;;;;19.10;80.90;;;;;;5042895;28;20329;-69
2022/12/03 20:31:01;;;;;;;;;;;19.20;80.90;;;;;;5051174;28;19940;-69
2022/12/03 20:33:27;;;;;;;;;;;19.20;80.80;;;;;;5051394;28;19913;-69
2022/12/03 20:35:54;;;;;;;;;;;19.30;80.60;;;;;;5033512;28;19920;-69
2022/12/03 20:38:21;;;;;;;;;;;19.30;80.50;;;;;;5050433;28;19924;-68
2022/12/03 20:40:48;;;;;;;;;;;19.40;80.80;;;;;;5051470;28;20388;-68
2022/12/03 20:43:14;;;;;;;;;;;19.50;81.40;;;;;;5049533;28;19917;-69
2022/12/03 20:45:41;;;;;;;;;;;19.70;81.40;;;;;;5051781;28;19917;-68
2022/12/03 20:48:08;;;;;;;;;;;19.80;80.70;;;;;;5048455;28;19925;-68
2022/12/03 20:50:36;;;;;;;;;;;20.00;79.80;;;;;;5045834;28;20328;-66
2022/12/03 20:53:03;;;;;;;;;;;20.10;80.40;;;;;;5051186;28;19920;-67
2022/12/03 20:55:29;;;;;;;;;;;20.30;80.60;;;;;;5049939;28;20583;-68
2022/12/03 20:57:56;;;;;;;;;;;20.40;79.30;;;;;;5048592;28;19965;-67
2022/12/03 21:00:23;;;;;;;;;;;20.50;79.20;;;;;;5049504;28;19983;-70
2022/12/03 21:02:50;;;;;;;;;;;20.70;78.50;;;;;;5050013;28;19943;-70
2022/12/03 21:05:17;;;;;;;;;;;20.80;78.30;;;;;;5051531;28;19923;-69
2022/12/03 21:07:44;;;;;;;;;;;20.80;77.20;;;;;;5043203;28;19920;-69
2022/12/03 21:10:34;;;;;;;;;;;21.00;76.20;;;;;;5044142;28;20412;-69
2022/12/03 21:12:57;;;;;;;;;;;21.10;75.90;;;;;;5047263;28;19920;-68
2022/12/03 21:15:23;;;;;;;;;;;21.20;75.20;;;;;;5050224;28;20442;-68
2022/12/03 21:17:50;;;;;;;;;;;21.30;74.70;;;;;;5044867;28;20058;-68
2022/12/03 21:20:18;;;;;;;;;;;21.30;74.20;;;;;;5051220;28;19913;-69
2022/12/03 21:22:44;;;;;;;;;;;21.30;74.00;;;;;;5050487;28;19912;-69
2022/12/03 21:25:11;;;;;;;;;;;21.30;74.60;;;;;;5032745;28;19913;-69
2022/12/03 21:27:38;;;;;;;;;;;21.30;74.40;;;;;;5048930;28;19962;-69
2022/12/03 21:30:05;;;;;;;;;;;21.30;74.30;;;;;;5048778;28;19920;-69
